createdAt,value
2022-12-20T00:02:26.715Z,19.53
2022-12-20T00:05:29.222Z,21.37
2022-12-20T00:08:31.508Z,19.77
2022-12-20T00:11:33.673Z,19.90
2022-12-20T00:14:35.748Z,20.43
2022-12-20T00:17:37.876Z,20.90
2022-12-20T00:20:40.111Z,20.67
2022-12-20T00:23:42.657Z,21.10
2022-12-20T00:26:44.765Z,21.47
2022-12-20T00:29:46.905Z,21.83
2022-12-20T00:32:48.931Z,18.97
2022-12-20T00:35:52.439Z,19.43
2022-12-20T00:38:56.752Z,21.17
2022-12-20T00:41:58.818Z,21.13
2022-12-20T00:45:00.923Z,20.37
2022-12-20T00:48:02.977Z,20.40
2022-12-20T00:51:11.517Z,20.70
2022-12-20T00:54:13.528Z,20.37
2022-12-20T00:57:15.572Z,20.77
2022-12-20T01:00:18.013Z,21.50
2022-12-20T01:03:20.871Z,20.37
2022-12-20T01:06:25.221Z,21.20
2022-12-20T01:09:27.250Z,21.00
2022-12-20T01:12:29.744Z,19.50
2022-12-20T01:15:31.788Z,20.80
2022-12-20T01:18:34.015Z,20.53
2022-12-20T01:21:36.350Z,20.43
2022-12-20T01:24:38.396Z,19.97
2022-12-20T01:27:40.495Z,21.10
2022-12-20T01:30:42.600Z,19.60
2022-12-20T01:33:46.835Z,20.67
2022-12-20T01:36:49.889Z,19.73
2022-12-20T01:39:52.096Z,20.47
2022-12-20T01:42:54.495Z,20.00
2022-12-20T01:45:56.683Z,19.00
2022-12-20T01:49:08.438Z,22.23
2022-12-20T01:52:33.423Z,23.10
2022-12-20T01:55:35.969Z,22.03
2022-12-20T01:58:39.575Z,20.23
2022-12-20T02:01:44.269Z,20.90
2022-12-20T02:04:46.822Z,20.90
2022-12-20T02:07:56.783Z,21.60
2022-12-20T02:11:16.429Z,20.00
2022-12-20T02:14:36.122Z,19.20
2022-12-20T02:17:58.984Z,20.20
2022-12-20T02:21:17.705Z,19.47
2022-12-20T02:24:47.937Z,22.73
2022-12-20T02:28:13.921Z,19.80
2022-12-20T02:31:21.943Z,20.07
2022-12-20T02:34:26.637Z,18.80
2022-12-20T02:37:28.743Z,20.70
2022-12-20T02:40:43.492Z,19.90
2022-12-20T02:44:11.735Z,20.63
2022-12-20T02:47:20.477Z,20.40
2022-12-20T02:50:36.403Z,19.80
2022-12-20T02:53:41.296Z,20.47
2022-12-20T02:57:37.180Z,19.87
2022-12-20T03:00:43.903Z,21.07
2022-12-20T03:03:46.002Z,20.10
2022-12-20T03:07:02.954Z,18.63
2022-12-20T03:10:05.360Z,19.73
2022-12-20T03:13:07.516Z,19.13
2022-12-20T03:16:11.964Z,17.43
2022-12-20T03:19:14.247Z,21.07
2022-12-20T03:22:16.332Z,20.20
2022-12-20T03:25:18.481Z,18.90
2022-12-20T03:28:21.053Z,18.63
2022-12-20T03:31:23.295Z,18.03
2022-12-20T03:34:30.179Z,18.73
2022-12-20T03:37:32.404Z,19.27
2022-12-20T03:40:36.719Z,19.33
2022-12-20T03:43:38.794Z,18.47
2022-12-20T03:46:41.332Z,20.73
2022-12-20T03:49:43.364Z,19.67
2022-12-20T03:52:46.804Z,17.87
2022-12-20T03:55:48.837Z,20.40
2022-12-20T03:58:51.288Z,18.37
2022-12-20T04:01:53.467Z,19.20
2022-12-20T04:04:55.748Z,20.30
2022-12-20T04:07:57.959Z,19.70
2022-12-20T04:11:18.071Z,19.13
2022-12-20T04:14:46.156Z,20.67
2022-12-20T04:17:48.809Z,20.37
2022-12-20T04:20:55.406Z,19.40
2022-12-20T04:24:04.199Z,19.93
2022-12-20T04:27:18.369Z,18.93
2022-12-20T04:30:20.615Z,20.23
2022-12-20T04:33:24.034Z,18.97
2022-12-20T04:36:26.436Z,19.30
2022-12-20T04:39:31.290Z,20.37
2022-12-20T04:42:50.034Z,18.37
2022-12-20T04:45:56.430Z,18.27
2022-12-20T04:49:00.122Z,20.43
2022-12-20T04:52:22.364Z,20.90
2022-12-20T04:55:25.127Z,20.83
2022-12-20T04:58:28.053Z,20.97
2022-12-20T05:01:30.328Z,21.03
2022-12-20T05:04:37.385Z,20.60
2022-12-20T05:07:40.851Z,19.80
2022-12-20T05:10:43.041Z,21.27
2022-12-20T05:13:45.193Z,20.83
2022-12-20T05:16:48.356Z,20.60
2022-12-20T05:19:50.602Z,21.37
2022-12-20T05:23:12.029Z,20.10
2022-12-20T05:26:20.086Z,22.30
2022-12-20T05:29:24.096Z,21.17
2022-12-20T05:32:26.571Z,22.47
2022-12-20T05:35:29.859Z,20.20
2022-12-20T05:38:39.710Z,22.00
2022-12-20T05:41:47.825Z,21.23
2022-12-20T05:44:49.856Z,21.17
2022-12-20T05:47:52.151Z,20.73
2022-12-20T05:50:54.510Z,20.97
2022-12-20T05:54:01.909Z,19.90
2022-12-20T05:57:16.879Z,19.63
2022-12-20T06:00:19.142Z,20.20
2022-12-20T06:03:23.447Z,22.37
2022-12-20T06:06:26.465Z,21.17
2022-12-20T06:09:30.558Z,21.37
2022-12-20T06:12:40.490Z,21.43
2022-12-20T06:15:42.598Z,21.73
2022-12-20T06:18:44.678Z,22.17
2022-12-20T06:21:48.318Z,21.00
2022-12-20T06:24:52.200Z,21.33
2022-12-20T06:27:59.195Z,22.50
2022-12-20T06:31:01.290Z,20.70
2022-12-20T06:34:14.225Z,22.97
2022-12-20T06:37:17.453Z,21.67
2022-12-20T06:40:19.797Z,22.90
2022-12-20T06:43:21.874Z,22.47
2022-12-20T06:46:24.054Z,21.07
2022-12-20T06:49:26.182Z,21.07
2022-12-20T06:52:28.678Z,23.93
2022-12-20T06:55:30.723Z,22.40
2022-12-20T06:58:32.956Z,22.80
2022-12-20T07:01:35.259Z,22.23
2022-12-20T07:04:38.086Z,21.90
2022-12-20T07:07:44.897Z,22.07
2022-12-20T07:10:47.967Z,22.47
2022-12-20T07:13:50.587Z,21.83
2022-12-20T07:16:52.722Z,23.20
2022-12-20T07:19:54.857Z,21.77
2022-12-20T07:22:57.048Z,23.63
2022-12-20T07:26:01.034Z,20.33
2022-12-20T07:29:03.158Z,20.33
2022-12-20T07:32:05.569Z,22.47
2022-12-20T07:35:08.204Z,23.17
2022-12-20T07:38:10.226Z,23.20
2022-12-20T07:41:18.519Z,23.00
2022-12-20T07:44:20.709Z,22.17
2022-12-20T07:47:23.130Z,23.53
2022-12-20T07:50:26.154Z,22.10
2022-12-20T07:53:32.143Z,21.53
2022-12-20T07:56:41.136Z,20.90
2022-12-20T07:59:50.483Z,22.43
2022-12-20T08:03:15.902Z,21.27
2022-12-20T08:06:18.984Z,21.53
2022-12-20T08:09:21.036Z,22.47
2022-12-20T08:12:23.853Z,22.17
2022-12-20T08:15:28.918Z,20.17
2022-12-20T08:18:32.000Z,20.97
2022-12-20T08:21:34.169Z,21.43
2022-12-20T08:24:36.276Z,21.33
2022-12-20T08:27:38.431Z,23.27
2022-12-20T08:30:40.575Z,22.90
2022-12-20T08:33:42.899Z,22.20
2022-12-20T08:36:45.802Z,22.30
2022-12-20T08:39:47.862Z,20.93
2022-12-20T08:42:49.949Z,21.00
2022-12-20T08:45:54.673Z,21.47
2022-12-20T08:48:56.719Z,20.83
2022-12-20T08:51:58.799Z,22.20
2022-12-20T08:55:01.990Z,20.33
2022-12-20T08:58:04.661Z,22.83
2022-12-20T09:01:09.397Z,21.10
2022-12-20T09:04:12.280Z,24.03
2022-12-20T09:07:14.500Z,20.83
2022-12-20T09:10:16.671Z,20.97
2022-12-20T09:13:18.872Z,20.13
2022-12-20T09:16:24.016Z,22.00
2022-12-20T09:19:26.161Z,21.40
2022-12-20T09:22:30.162Z,22.10
2022-12-20T09:25:33.403Z,22.70
2022-12-20T09:28:35.594Z,21.73
2022-12-20T09:31:37.934Z,21.63
2022-12-20T09:34:40.213Z,20.60
2022-12-20T09:37:42.265Z,21.53
2022-12-20T09:40:51.212Z,22.87
2022-12-20T09:43:53.929Z,21.53
2022-12-20T09:47:10.718Z,22.90
2022-12-20T09:50:18.053Z,23.00
2022-12-20T09:53:36.475Z,22.87
2022-12-20T09:56:47.122Z,20.17
2022-12-20T09:59:49.991Z,22.70
2022-12-20T10:03:08.654Z,20.20
2022-12-20T10:06:22.796Z,21.60
2022-12-20T10:09:38.293Z,21.13
2022-12-20T10:13:08.305Z,19.37
2022-12-20T10:16:13.436Z,20.70
2022-12-20T10:19:30.441Z,21.93
2022-12-20T10:22:46.534Z,18.87
2022-12-20T10:25:50.843Z,20.53
2022-12-20T10:28:54.673Z,20.47
2022-12-20T10:32:01.174Z,21.40
2022-12-20T10:35:26.963Z,19.63
2022-12-20T10:38:45.575Z,20.23
2022-12-20T10:41:50.204Z,20.73
2022-12-20T10:44:53.195Z,19.53
2022-12-20T10:48:00.327Z,19.93
2022-12-20T10:51:16.966Z,19.03
2022-12-20T10:54:46.384Z,20.33
2022-12-20T10:57:48.439Z,22.07
2022-12-20T11:00:50.654Z,21.23
2022-12-20T11:04:07.883Z,19.90
2022-12-20T11:07:28.763Z,20.00
2022-12-20T11:10:30.946Z,19.77
2022-12-20T11:13:33.057Z,19.83
2022-12-20T11:16:40.597Z,23.13
2022-12-20T11:20:21.119Z,19.97
2022-12-20T11:23:42.055Z,20.43
2022-12-20T11:26:58.017Z,18.53
2022-12-20T11:30:24.603Z,19.60
2022-12-20T11:34:02.107Z,18.87
2022-12-20T11:37:19.720Z,20.17
2022-12-20T11:40:28.287Z,19.17
2022-12-20T11:44:22.657Z,18.60
2022-12-20T11:47:21.979Z,19.40
2022-12-20T11:50:56.268Z,19.93
2022-12-20T11:54:08.616Z,19.77
2022-12-20T11:58:08.802Z,17.60
2022-12-20T12:01:14.203Z,20.17
2022-12-20T12:04:30.501Z,19.37
2022-12-20T12:07:35.723Z,19.47
2022-12-20T12:10:42.986Z,16.73
2022-12-20T12:13:45.497Z,19.17
2022-12-20T12:16:54.254Z,20.50
2022-12-20T12:20:09.605Z,18.80
2022-12-20T12:23:23.352Z,17.77
2022-12-20T12:26:28.778Z,19.03
2022-12-20T12:29:33.750Z,18.73
2022-12-20T12:32:49.393Z,20.20
2022-12-20T12:35:51.422Z,18.90
2022-12-20T12:39:12.985Z,18.93
2022-12-20T12:42:52.436Z,21.13
2022-12-20T12:46:00.291Z,18.53
2022-12-20T12:49:17.845Z,20.20
2022-12-20T12:52:35.595Z,19.87
2022-12-20T12:55:49.522Z,19.03
2022-12-20T12:59:06.893Z,19.13
2022-12-20T13:02:15.563Z,19.73
2022-12-20T13:05:31.187Z,19.57
2022-12-20T13:09:04.317Z,19.63
2022-12-20T13:12:37.119Z,19.30
2022-12-20T13:15:41.989Z,20.43
2022-12-20T13:19:02.983Z,20.40
2022-12-20T13:22:22.211Z,19.53
2022-12-20T13:25:31.666Z,18.23
2022-12-20T13:28:33.686Z,19.60
2022-12-20T13:31:36.209Z,18.43
2022-12-20T13:34:58.386Z,21.40
2022-12-20T13:38:12.310Z,19.50
2022-12-20T13:41:26.818Z,19.83
2022-12-20T13:44:53.309Z,21.13
2022-12-20T13:48:07.699Z,21.57
2022-12-20T13:51:23.003Z,21.17
2022-12-20T13:54:27.384Z,19.90
2022-12-20T13:57:45.386Z,20.87
2022-12-20T14:00:49.439Z,22.40
2022-12-20T14:03:53.667Z,19.90
2022-12-20T14:07:01.751Z,21.07
2022-12-20T14:10:17.613Z,20.00
2022-12-20T14:13:26.049Z,20.53
2022-12-20T14:16:31.050Z,19.77
2022-12-20T14:19:33.147Z,20.60
2022-12-20T14:22:36.886Z,21.73
2022-12-20T14:25:45.032Z,20.83
2022-12-20T14:28:50.184Z,21.47
2022-12-20T14:31:52.358Z,22.00
2022-12-20T14:34:54.756Z,20.17
2022-12-20T14:38:00.432Z,19.33
2022-12-20T14:41:02.595Z,19.93
2022-12-20T14:44:07.881Z,18.23
2022-12-20T14:47:21.513Z,19.03
2022-12-20T14:50:35.384Z,18.70
2022-12-20T14:53:40.373Z,20.90
2022-12-20T14:56:47.226Z,20.73
2022-12-20T15:00:13.990Z,20.53
2022-12-20T15:03:18.777Z,21.17
2022-12-20T15:06:42.755Z,20.97
2022-12-20T15:09:44.869Z,22.07
2022-12-20T15:12:47.098Z,21.23
2022-12-20T15:15:49.295Z,22.43
2022-12-20T15:18:56.695Z,21.20
2022-12-20T15:21:58.913Z,19.10
2022-12-20T15:25:00.977Z,20.97
2022-12-20T15:28:03.105Z,20.33
2022-12-20T15:31:05.400Z,17.93
2022-12-20T15:34:15.408Z,22.43
2022-12-20T15:37:18.920Z,20.70
2022-12-20T15:40:21.366Z,21.57
2022-12-20T15:43:25.021Z,18.93
2022-12-20T15:46:27.910Z,19.60
2022-12-20T15:49:31.951Z,20.73
2022-12-20T15:52:34.130Z,20.57
2022-12-20T15:55:39.911Z,20.00
2022-12-20T15:58:42.362Z,20.97
2022-12-20T16:01:44.531Z,20.67
2022-12-20T16:04:46.664Z,20.10
2022-12-20T16:07:48.781Z,19.97
2022-12-20T16:10:52.265Z,19.13
2022-12-20T16:13:56.288Z,17.50
2022-12-20T16:16:58.529Z,18.80
2022-12-20T16:20:00.898Z,18.97
2022-12-20T16:23:04.340Z,19.07
2022-12-20T16:26:06.710Z,20.60
2022-12-20T16:29:08.815Z,20.03
2022-12-20T16:32:16.836Z,18.93
2022-12-20T16:35:27.733Z,20.17
2022-12-20T16:38:29.835Z,19.37
2022-12-20T16:41:33.247Z,18.47
2022-12-20T16:44:35.323Z,18.87
2022-12-20T16:47:37.364Z,20.23
2022-12-20T16:50:43.588Z,20.50
2022-12-20T16:54:17.305Z,19.97
2022-12-20T16:57:09.416Z,18.47
2022-12-20T17:00:18.233Z,21.80
2022-12-20T17:03:20.499Z,19.27
2022-12-20T17:06:22.718Z,19.83
2022-12-20T17:09:24.762Z,19.43
2022-12-20T17:12:27.014Z,19.07
2022-12-20T17:15:32.066Z,18.30
2022-12-20T17:18:34.173Z,19.47
2022-12-20T17:25:00.381Z,20.43
2022-12-20T17:28:02.504Z,18.60
2022-12-20T17:31:26.191Z,20.37
2022-12-20T17:34:30.480Z,18.80
2022-12-20T17:37:32.516Z,18.60
2022-12-20T17:40:35.907Z,20.20
2022-12-20T17:43:37.950Z,18.93
2022-12-20T17:46:40.031Z,20.50
2022-12-20T17:49:42.103Z,19.77
2022-12-20T17:52:45.996Z,19.37
2022-12-20T17:55:48.026Z,19.43
2022-12-20T17:58:50.299Z,19.33
2022-12-20T18:01:52.754Z,20.67
2022-12-20T18:04:55.008Z,19.47
2022-12-20T18:07:57.158Z,18.70
2022-12-20T18:10:59.205Z,19.70
2022-12-20T18:14:03.848Z,20.93
2022-12-20T18:17:06.102Z,17.43
2022-12-20T18:20:10.051Z,20.37
2022-12-20T18:23:12.362Z,20.07
2022-12-20T18:26:17.479Z,19.37
2022-12-20T18:29:19.699Z,19.73
2022-12-20T18:32:22.050Z,19.10
2022-12-20T18:35:24.426Z,19.87
2022-12-20T18:38:26.655Z,19.20
2022-12-20T18:41:31.033Z,21.37
2022-12-20T18:44:36.097Z,21.40
2022-12-20T18:47:38.872Z,18.37
2022-12-20T18:50:41.108Z,19.43
2022-12-20T18:53:45.465Z,21.40
2022-12-20T18:56:49.628Z,20.77
2022-12-20T18:59:52.011Z,19.70
2022-12-20T19:02:59.656Z,20.97
2022-12-20T19:06:05.553Z,19.07
2022-12-20T19:09:10.525Z,21.10
2022-12-20T19:12:12.999Z,19.83
2022-12-20T19:15:15.389Z,20.47
2022-12-20T19:18:17.879Z,17.77
2022-12-20T19:24:50.492Z,20.03
2022-12-20T19:27:52.762Z,20.00
2022-12-20T19:30:56.344Z,20.03
2022-12-20T19:34:05.654Z,19.40
2022-12-20T19:37:08.162Z,19.37
2022-12-20T19:40:12.099Z,19.57
2022-12-20T19:43:14.189Z,21.20
2022-12-20T19:46:16.759Z,19.33
2022-12-20T19:49:21.363Z,17.77
2022-12-20T19:52:28.409Z,18.97
2022-12-20T19:55:31.313Z,20.70
2022-12-20T19:58:33.879Z,20.23
2022-12-20T20:01:36.226Z,19.77
2022-12-20T20:04:38.946Z,21.43
2022-12-20T20:07:41.499Z,20.23
2022-12-20T20:10:45.113Z,19.77
2022-12-20T20:13:48.053Z,20.43
2022-12-20T20:16:50.902Z,21.83
2022-12-20T20:19:53.063Z,18.77
2022-12-20T20:22:55.331Z,19.03
2022-12-20T20:25:59.077Z,18.90
2022-12-20T20:29:02.379Z,19.10
2022-12-20T20:32:05.507Z,20.10
2022-12-20T20:35:09.237Z,20.07
2022-12-20T20:38:12.416Z,20.27
2022-12-20T20:41:15.095Z,18.03
2022-12-20T20:44:17.212Z,19.10
2022-12-20T20:47:20.810Z,19.00
2022-12-20T20:50:22.965Z,20.37
2022-12-20T20:53:29.508Z,19.57
2022-12-20T20:56:36.500Z,18.27
2022-12-20T20:59:38.562Z,18.30
2022-12-20T21:02:40.882Z,19.40
2022-12-20T21:09:07.152Z,18.67
2022-12-20T21:12:09.467Z,18.80
2022-12-20T21:15:22.311Z,19.13
2022-12-20T21:18:24.925Z,18.17
2022-12-20T21:21:27.407Z,16.77
2022-12-20T21:24:29.705Z,18.17
2022-12-20T21:27:31.910Z,16.33
2022-12-20T21:30:34.964Z,17.40
2022-12-20T21:33:37.741Z,17.03
2022-12-20T21:36:39.753Z,16.57
2022-12-20T21:39:41.845Z,16.40
2022-12-20T21:42:43.925Z,15.47
2022-12-20T21:45:50.546Z,16.73
2022-12-20T21:48:52.705Z,17.73
2022-12-20T21:51:56.576Z,16.97
2022-12-20T21:54:58.565Z,18.37
2022-12-20T21:58:00.617Z,16.53
2022-12-20T22:01:08.490Z,16.57
2022-12-20T22:04:12.180Z,15.20
2022-12-20T22:07:14.314Z,16.93
2022-12-20T22:10:16.419Z,16.87
2022-12-20T22:13:18.488Z,18.23
2022-12-20T22:16:21.595Z,16.80
2022-12-20T22:19:23.743Z,16.70
2022-12-20T22:22:26.210Z,16.77
2022-12-20T22:25:28.471Z,16.73
2022-12-20T22:28:30.654Z,18.43
2022-12-20T22:31:33.760Z,18.70
2022-12-20T22:34:35.814Z,17.70
2022-12-20T22:37:37.889Z,17.37
2022-12-20T22:40:39.901Z,17.33
2022-12-20T22:43:44.699Z,18.43
2022-12-20T22:50:06.407Z,19.00
2022-12-20T22:53:08.375Z,16.47
2022-12-20T22:56:11.237Z,17.83
2022-12-20T22:59:13.268Z,19.83
2022-12-20T23:02:15.425Z,20.17
2022-12-20T23:05:17.517Z,18.57
2022-12-20T23:08:19.919Z,18.70
2022-12-20T23:11:44.612Z,19.60
2022-12-20T23:15:05.191Z,17.73
2022-12-20T23:18:07.348Z,19.73
2022-12-20T23:21:27.995Z,17.47
2022-12-20T23:24:30.116Z,17.77
2022-12-20T23:27:32.190Z,18.00
2022-12-20T23:30:34.242Z,18.07
2022-12-20T23:33:36.774Z,18.57
2022-12-20T23:36:38.822Z,18.67
2022-12-20T23:39:40.814Z,18.47
2022-12-20T23:42:43.095Z,17.07
2022-12-20T23:45:45.335Z,18.70
2022-12-20T23:48:47.602Z,17.20
2022-12-20T23:51:49.870Z,17.63
2022-12-20T23:54:51.817Z,18.07
2022-12-20T23:57:53.844Z,16.93
